BAW926A EGLL-EBBR
Flight info
| Callsign | BAW926A |
|---|---|
| Flight time | 0h 43m |
| Altitude | 23000 |
| Route | DCT DET Q70 KOK DCT |
| Aircraft | A20N/M-SDGHIJ1LRWXY/SB1 |
Departure
| Time | 2026-05-05 19:24 |
|---|---|
| Airport | London Heathrow Airport (EGLL) |
Arrival
| Time | 2026-05-05 20:08 |
|---|---|
| Airport | Brussels Airport (EBBR) |
| Time | Latitude | Longitude | Altitude | Speed | Heading |
|---|---|---|---|---|---|
| 2026-05-05 18:40 | 51.47316 | -0.48580 | 85 ft | 0 kts | 268° |
| 2026-05-05 19:03 | 51.47316 | -0.48558 | 88 ft | 3 kts | 265° |
| 2026-05-05 19:04 | 51.47320 | -0.48516 | 84 ft | 4 kts | 251° |
| 2026-05-05 19:04 | 51.47333 | -0.48481 | 90 ft | 4 kts | 202° |
| 2026-05-05 19:04 | 51.47341 | -0.48477 | 86 ft | 1 kts | 178° |
| 2026-05-05 19:09 | 51.47320 | -0.48476 | 84 ft | 6 kts | 178° |
| 2026-05-05 19:09 | 51.47263 | -0.48476 | 84 ft | 10 kts | 180° |
| 2026-05-05 19:10 | 51.47179 | -0.48476 | 84 ft | 14 kts | 181° |
| 2026-05-05 19:10 | 51.47075 | -0.48472 | 84 ft | 16 kts | 178° |
| 2026-05-05 19:10 | 51.46959 | -0.48473 | 84 ft | 17 kts | 178° |
| 2026-05-05 19:10 | 51.46841 | -0.48471 | 88 ft | 9 kts | 182° |
| 2026-05-05 19:11 | 51.46833 | -0.48471 | 88 ft | 0 kts | 180° |
| 2026-05-05 19:13 | 51.46825 | -0.48472 | 86 ft | 6 kts | 182° |
| 2026-05-05 19:13 | 51.46741 | -0.48470 | 86 ft | 16 kts | 179° |
| 2026-05-05 19:13 | 51.46654 | -0.48545 | 88 ft | 16 kts | 266° |
| 2026-05-05 19:14 | 51.46652 | -0.48650 | 86 ft | 7 kts | 269° |
| 2026-05-05 19:14 | 51.46650 | -0.48715 | 86 ft | 3 kts | 259° |
| 2026-05-05 19:14 | 51.46642 | -0.48737 | 89 ft | 0 kts | 233° |
| 2026-05-05 19:14 | 51.46636 | -0.48746 | 88 ft | 0 kts | 220° |
| 2026-05-05 19:17 | 51.46619 | -0.48757 | 88 ft | 7 kts | 200° |
| 2026-05-05 19:17 | 51.46603 | -0.48766 | 87 ft | 0 kts | 200° |
| 2026-05-05 19:17 | 51.46600 | -0.48768 | 88 ft | 0 kts | 199° |
| 2026-05-05 19:21 | 51.46557 | -0.48783 | 85 ft | 13 kts | 185° |
| 2026-05-05 19:22 | 51.46481 | -0.48706 | 87 ft | 15 kts | 108° |
| 2026-05-05 19:22 | 51.46478 | -0.48628 | 87 ft | 0 kts | 89° |
| 2026-05-05 19:23 | 51.46478 | -0.48540 | 86 ft | 26 kts | 89° |
| 2026-05-05 19:24 | 51.46480 | -0.47846 | 83 ft | 96 kts | 90° |
| 2026-05-05 19:24 | 51.46486 | -0.46476 | 90 ft | 146 kts | 89° |
| 2026-05-05 19:24 | 51.46473 | -0.44751 | 523 ft | 152 kts | 91° |
| 2026-05-05 19:24 | 51.46424 | -0.43103 | 1198 ft | 146 kts | 89° |
| 2026-05-05 19:25 | 51.46377 | -0.41457 | 1778 ft | 150 kts | 100° |
| 2026-05-05 19:25 | 51.45982 | -0.39854 | 2203 ft | 166 kts | 116° |
| 2026-05-05 19:25 | 51.45345 | -0.38176 | 2544 ft | 187 kts | 120° |
| 2026-05-05 19:25 | 51.44663 | -0.36275 | 2898 ft | 207 kts | 108° |
| 2026-05-05 19:26 | 51.44149 | -0.33963 | 3295 ft | 233 kts | 107° |
| 2026-05-05 19:26 | 51.43602 | -0.31382 | 3925 ft | 255 kts | 106° |
| 2026-05-05 19:26 | 51.43039 | -0.28618 | 4790 ft | 265 kts | 104° |
| 2026-05-05 19:26 | 51.42613 | -0.25721 | 5792 ft | 269 kts | 100° |
| 2026-05-05 19:27 | 51.42212 | -0.22754 | 6777 ft | 274 kts | 100° |
| 2026-05-05 19:27 | 51.41802 | -0.19744 | 7740 ft | 279 kts | 100° |
| 2026-05-05 19:27 | 51.41382 | -0.16674 | 8708 ft | 285 kts | 101° |
| 2026-05-05 19:27 | 51.40951 | -0.13548 | 9701 ft | 289 kts | 101° |
| 2026-05-05 19:28 | 51.40508 | -0.10387 | 10439 ft | 302 kts | 101° |
| 2026-05-05 19:28 | 51.40057 | -0.07146 | 10826 ft | 323 kts | 99° |
| 2026-05-05 19:28 | 51.39758 | -0.03465 | 11252 ft | 342 kts | 95° |
| 2026-05-05 19:28 | 51.39514 | 0.00355 | 12095 ft | 346 kts | 94° |
| 2026-05-05 19:29 | 51.39277 | 0.04205 | 13000 ft | 350 kts | 95° |
| 2026-05-05 19:29 | 51.39031 | 0.08118 | 13864 ft | 354 kts | 95° |
| 2026-05-05 19:29 | 51.38779 | 0.12009 | 14653 ft | 357 kts | 95° |
| 2026-05-05 19:29 | 51.38515 | 0.15984 | 15443 ft | 361 kts | 95° |
| 2026-05-05 19:30 | 51.38244 | 0.19997 | 16227 ft | 364 kts | 95° |
| 2026-05-05 19:30 | 51.37969 | 0.24047 | 17018 ft | 368 kts | 95° |
| 2026-05-05 19:30 | 51.37689 | 0.28148 | 17800 ft | 372 kts | 95° |
| 2026-05-05 19:30 | 51.37404 | 0.32294 | 18512 ft | 375 kts | 95° |
| 2026-05-05 19:31 | 51.37116 | 0.36472 | 19229 ft | 380 kts | 95° |
| 2026-05-05 19:31 | 51.36827 | 0.40648 | 19856 ft | 384 kts | 95° |
| 2026-05-05 19:31 | 51.36530 | 0.44915 | 20487 ft | 388 kts | 95° |
| 2026-05-05 19:31 | 51.36229 | 0.49223 | 21113 ft | 392 kts | 95° |
| 2026-05-05 19:32 | 51.35922 | 0.53576 | 21727 ft | 396 kts | 95° |
| 2026-05-05 19:32 | 51.35610 | 0.57978 | 22321 ft | 400 kts | 96° |
| 2026-05-05 19:32 | 51.35294 | 0.62429 | 22849 ft | 405 kts | 96° |
| 2026-05-05 19:32 | 51.34973 | 0.66915 | 22932 ft | 407 kts | 96° |
| 2026-05-05 19:33 | 51.34650 | 0.71409 | 22952 ft | 406 kts | 96° |
| 2026-05-05 19:33 | 51.34325 | 0.75891 | 22958 ft | 406 kts | 96° |
| 2026-05-05 19:33 | 51.33999 | 0.80370 | 22960 ft | 406 kts | 96° |
| 2026-05-05 19:33 | 51.33671 | 0.84852 | 22949 ft | 406 kts | 96° |
| 2026-05-05 19:34 | 51.33341 | 0.89336 | 22951 ft | 406 kts | 96° |
| 2026-05-05 19:34 | 51.33011 | 0.93794 | 22949 ft | 406 kts | 96° |
| 2026-05-05 19:34 | 51.32676 | 0.98311 | 22952 ft | 405 kts | 96° |
| 2026-05-05 19:35 | 51.32005 | 1.07260 | 22936 ft | 405 kts | 96° |
| 2026-05-05 19:35 | 51.31672 | 1.11676 | 22935 ft | 405 kts | 96° |
| 2026-05-05 19:35 | 51.31332 | 1.16147 | 22943 ft | 405 kts | 96° |
| 2026-05-05 19:35 | 51.30991 | 1.20628 | 22934 ft | 405 kts | 96° |
| 2026-05-05 19:36 | 51.30647 | 1.25105 | 22936 ft | 405 kts | 96° |
| 2026-05-05 19:36 | 51.30303 | 1.29572 | 22927 ft | 405 kts | 96° |
| 2026-05-05 19:36 | 51.29957 | 1.34043 | 22931 ft | 406 kts | 96° |
| 2026-05-05 19:36 | 51.29608 | 1.38523 | 22937 ft | 405 kts | 97° |
| 2026-05-05 19:37 | 51.29257 | 1.43003 | 22938 ft | 406 kts | 97° |
| 2026-05-05 19:37 | 51.28906 | 1.47469 | 22927 ft | 406 kts | 97° |
| 2026-05-05 19:37 | 51.28552 | 1.51948 | 22932 ft | 406 kts | 97° |
| 2026-05-05 19:37 | 51.28197 | 1.56419 | 22935 ft | 406 kts | 97° |
| 2026-05-05 19:38 | 51.27840 | 1.60892 | 22930 ft | 406 kts | 97° |
| 2026-05-05 19:38 | 51.27481 | 1.65358 | 22927 ft | 406 kts | 97° |
| 2026-05-05 19:38 | 51.27121 | 1.69832 | 22926 ft | 406 kts | 97° |
| 2026-05-05 19:38 | 51.26760 | 1.74291 | 22924 ft | 405 kts | 97° |
| 2026-05-05 19:39 | 51.26397 | 1.78759 | 22928 ft | 405 kts | 97° |
| 2026-05-05 19:39 | 51.26032 | 1.83211 | 22921 ft | 405 kts | 97° |
| 2026-05-05 19:39 | 51.25667 | 1.87664 | 22913 ft | 405 kts | 98° |
| 2026-05-05 19:39 | 51.25298 | 1.92127 | 22925 ft | 405 kts | 98° |
| 2026-05-05 19:40 | 51.24967 | 1.96130 | 22923 ft | 404 kts | 98° |
| 2026-05-05 19:40 | 51.24598 | 2.00579 | 22918 ft | 404 kts | 98° |
| 2026-05-05 19:40 | 51.24311 | 2.05035 | 22921 ft | 405 kts | 95° |
| 2026-05-05 19:40 | 51.24116 | 2.09527 | 22912 ft | 405 kts | 95° |
| 2026-05-05 19:41 | 51.23937 | 2.14007 | 22921 ft | 405 kts | 95° |
| 2026-05-05 19:41 | 51.23747 | 2.18492 | 22922 ft | 405 kts | 95° |
| 2026-05-05 19:41 | 51.23546 | 2.22941 | 22702 ft | 400 kts | 95° |
| 2026-05-05 19:41 | 51.23334 | 2.27387 | 21706 ft | 403 kts | 95° |
| 2026-05-05 19:42 | 51.23113 | 2.31875 | 20384 ft | 409 kts | 95° |
| 2026-05-05 19:42 | 51.22811 | 2.36432 | 18825 ft | 418 kts | 101° |
| 2026-05-05 19:42 | 51.21919 | 2.40887 | 17197 ft | 426 kts | 115° |
| 2026-05-05 19:42 | 51.20396 | 2.44905 | 16018 ft | 420 kts | 127° |
| 2026-05-05 19:43 | 51.18523 | 2.48422 | 14908 ft | 412 kts | 129° |
| 2026-05-05 19:43 | 51.16663 | 2.51854 | 13832 ft | 405 kts | 129° |
| 2026-05-05 19:43 | 51.14842 | 2.55222 | 12587 ft | 399 kts | 129° |
| 2026-05-05 19:43 | 51.13038 | 2.58556 | 11392 ft | 395 kts | 129° |
| 2026-05-05 19:44 | 51.11282 | 2.61826 | 10668 ft | 381 kts | 127° |
| 2026-05-05 19:44 | 51.09904 | 2.65275 | 10274 ft | 357 kts | 114° |
| 2026-05-05 19:44 | 51.09059 | 2.68837 | 10055 ft | 333 kts | 103° |
| 2026-05-05 19:44 | 51.08602 | 2.72441 | 9944 ft | 336 kts | 98° |
| 2026-05-05 19:45 | 51.08172 | 2.76082 | 9901 ft | 333 kts | 99° |
| 2026-05-05 19:45 | 51.07741 | 2.79645 | 9814 ft | 322 kts | 99° |
| 2026-05-05 19:45 | 51.07326 | 2.83060 | 9674 ft | 306 kts | 99° |
| 2026-05-05 19:45 | 51.06931 | 2.86291 | 9478 ft | 290 kts | 99° |
| 2026-05-05 19:46 | 51.06555 | 2.89388 | 8987 ft | 284 kts | 99° |
| 2026-05-05 19:46 | 51.06184 | 2.92451 | 8393 ft | 281 kts | 98° |
| 2026-05-05 19:46 | 51.05816 | 2.95486 | 7826 ft | 278 kts | 98° |
| 2026-05-05 19:46 | 51.05450 | 2.98494 | 7272 ft | 276 kts | 98° |
| 2026-05-05 19:47 | 51.05210 | 3.00466 | 6907 ft | 274 kts | 98° |
| 2026-05-05 19:47 | 51.04849 | 3.03430 | 6380 ft | 272 kts | 98° |
| 2026-05-05 19:47 | 51.04489 | 3.06357 | 5891 ft | 266 kts | 98° |
| 2026-05-05 19:47 | 51.04136 | 3.09216 | 5689 ft | 267 kts | 98° |
| 2026-05-05 19:48 | 51.03779 | 3.12122 | 5560 ft | 267 kts | 98° |
| 2026-05-05 19:48 | 51.03421 | 3.15011 | 5440 ft | 268 kts | 98° |
| 2026-05-05 19:48 | 51.03064 | 3.17912 | 5315 ft | 266 kts | 98° |
| 2026-05-05 19:48 | 51.02710 | 3.20747 | 5176 ft | 259 kts | 98° |
| 2026-05-05 19:49 | 51.02360 | 3.23580 | 5048 ft | 264 kts | 98° |
| 2026-05-05 19:49 | 51.02006 | 3.26441 | 4922 ft | 262 kts | 98° |
| 2026-05-05 19:49 | 51.01654 | 3.29263 | 4778 ft | 261 kts | 98° |
| 2026-05-05 19:49 | 51.01301 | 3.32090 | 4662 ft | 261 kts | 98° |
| 2026-05-05 19:50 | 51.00948 | 3.34911 | 4539 ft | 261 kts | 98° |
| 2026-05-05 19:50 | 51.00597 | 3.37717 | 4396 ft | 258 kts | 98° |
| 2026-05-05 19:50 | 51.00246 | 3.40517 | 4272 ft | 259 kts | 98° |
| 2026-05-05 19:50 | 50.99894 | 3.43310 | 4135 ft | 257 kts | 98° |
| 2026-05-05 19:51 | 50.99544 | 3.46082 | 4026 ft | 256 kts | 98° |
| 2026-05-05 19:51 | 50.99193 | 3.48853 | 3995 ft | 255 kts | 98° |
| 2026-05-05 19:51 | 50.98849 | 3.51575 | 3991 ft | 256 kts | 98° |
| 2026-05-05 19:51 | 50.98495 | 3.54379 | 3992 ft | 256 kts | 98° |
| 2026-05-05 19:52 | 50.98147 | 3.57111 | 3988 ft | 255 kts | 98° |
| 2026-05-05 19:52 | 50.97794 | 3.59869 | 3989 ft | 255 kts | 98° |
| 2026-05-05 19:52 | 50.97441 | 3.62633 | 3991 ft | 257 kts | 99° |
| 2026-05-05 19:52 | 50.97084 | 3.65418 | 3990 ft | 256 kts | 98° |
| 2026-05-05 19:53 | 50.96731 | 3.68165 | 3991 ft | 254 kts | 98° |
| 2026-05-05 19:53 | 50.96378 | 3.70915 | 3990 ft | 255 kts | 98° |
| 2026-05-05 19:53 | 50.96023 | 3.73677 | 3989 ft | 256 kts | 98° |
| 2026-05-05 19:53 | 50.95667 | 3.76442 | 3992 ft | 255 kts | 98° |
| 2026-05-05 19:54 | 50.95312 | 3.79203 | 3988 ft | 255 kts | 99° |
| 2026-05-05 19:54 | 50.94956 | 3.81954 | 3991 ft | 255 kts | 99° |
| 2026-05-05 19:54 | 50.94598 | 3.84713 | 3993 ft | 256 kts | 99° |
| 2026-05-05 19:54 | 50.94238 | 3.87475 | 3994 ft | 256 kts | 99° |
| 2026-05-05 19:55 | 50.93877 | 3.90240 | 3991 ft | 255 kts | 99° |
| 2026-05-05 19:55 | 50.93518 | 3.92991 | 3994 ft | 255 kts | 99° |
| 2026-05-05 19:55 | 50.93158 | 3.95745 | 3993 ft | 256 kts | 99° |
| 2026-05-05 19:55 | 50.92796 | 3.98514 | 3995 ft | 256 kts | 99° |
| 2026-05-05 19:56 | 50.92433 | 4.01274 | 3942 ft | 256 kts | 99° |
| 2026-05-05 19:56 | 50.92071 | 4.04024 | 3817 ft | 255 kts | 99° |
| 2026-05-05 19:56 | 50.91710 | 4.06760 | 3689 ft | 253 kts | 99° |
| 2026-05-05 19:56 | 50.91350 | 4.09487 | 3564 ft | 252 kts | 98° |
| 2026-05-05 19:57 | 50.90821 | 4.12135 | 3430 ft | 255 kts | 117° |
| 2026-05-05 19:57 | 50.89581 | 4.14162 | 3305 ft | 263 kts | 145° |
| 2026-05-05 19:57 | 50.87842 | 4.15175 | 3190 ft | 270 kts | 162° |
| 2026-05-05 19:57 | 50.86015 | 4.15875 | 3048 ft | 271 kts | 163° |
| 2026-05-05 19:58 | 50.84177 | 4.16543 | 2936 ft | 271 kts | 163° |
| 2026-05-05 19:58 | 50.82350 | 4.17217 | 2801 ft | 268 kts | 163° |
| 2026-05-05 19:58 | 50.80536 | 4.17908 | 2677 ft | 269 kts | 162° |
| 2026-05-05 19:58 | 50.78722 | 4.18612 | 2553 ft | 268 kts | 162° |
| 2026-05-05 19:59 | 50.76903 | 4.19325 | 2422 ft | 270 kts | 162° |
| 2026-05-05 19:59 | 50.75081 | 4.20041 | 2285 ft | 269 kts | 162° |
| 2026-05-05 19:59 | 50.73266 | 4.20755 | 2206 ft | 269 kts | 162° |
| 2026-05-05 19:59 | 50.71453 | 4.21470 | 2187 ft | 268 kts | 161° |
| 2026-05-05 20:00 | 50.69813 | 4.22709 | 2154 ft | 257 kts | 135° |
| 2026-05-05 20:00 | 50.68812 | 4.24869 | 2085 ft | 237 kts | 105° |
| 2026-05-05 20:00 | 50.68673 | 4.27300 | 1989 ft | 212 kts | 73° |
| 2026-05-05 20:00 | 50.69086 | 4.29378 | 1996 ft | 186 kts | 66° |
| 2026-05-05 20:01 | 50.69513 | 4.31181 | 2011 ft | 165 kts | 66° |
| 2026-05-05 20:01 | 50.69869 | 4.32786 | 1986 ft | 146 kts | 68° |
| 2026-05-05 20:01 | 50.70146 | 4.34196 | 1987 ft | 128 kts | 69° |
| 2026-05-05 20:01 | 50.70399 | 4.35600 | 1980 ft | 133 kts | 70° |
| 2026-05-05 20:02 | 50.70631 | 4.36998 | 1980 ft | 132 kts | 70° |
| 2026-05-05 20:02 | 50.70854 | 4.38388 | 1997 ft | 131 kts | 71° |
| 2026-05-05 20:02 | 50.71080 | 4.39809 | 2007 ft | 141 kts | 71° |
| 2026-05-05 20:02 | 50.71478 | 4.41237 | 1993 ft | 143 kts | 50° |
| 2026-05-05 20:03 | 50.72251 | 4.42216 | 1987 ft | 144 kts | 28° |
| 2026-05-05 20:03 | 50.73170 | 4.42790 | 1992 ft | 144 kts | 20° |
| 2026-05-05 20:03 | 50.74154 | 4.43216 | 1995 ft | 145 kts | 17° |
| 2026-05-05 20:03 | 50.75117 | 4.43601 | 2000 ft | 145 kts | 17° |
| 2026-05-05 20:04 | 50.76093 | 4.43998 | 2005 ft | 146 kts | 17° |
| 2026-05-05 20:04 | 50.77064 | 4.44392 | 1989 ft | 138 kts | 17° |
| 2026-05-05 20:04 | 50.77994 | 4.44772 | 2007 ft | 143 kts | 17° |
| 2026-05-05 20:04 | 50.78967 | 4.45169 | 1999 ft | 144 kts | 17° |
| 2026-05-05 20:05 | 50.79932 | 4.45562 | 2005 ft | 144 kts | 17° |
| 2026-05-05 20:05 | 50.80909 | 4.45961 | 1863 ft | 146 kts | 17° |
| 2026-05-05 20:05 | 50.81894 | 4.46363 | 1665 ft | 147 kts | 16° |
| 2026-05-05 20:05 | 50.82879 | 4.46763 | 1472 ft | 146 kts | 16° |
| 2026-05-05 20:06 | 50.83849 | 4.47157 | 1250 ft | 140 kts | 17° |
| 2026-05-05 20:06 | 50.84767 | 4.47543 | 985 ft | 134 kts | 16° |
| 2026-05-05 20:06 | 50.85672 | 4.47924 | 801 ft | 134 kts | 14° |
| 2026-05-05 20:06 | 50.86589 | 4.48260 | 688 ft | 140 kts | 14° |
| 2026-05-05 20:07 | 50.87523 | 4.48669 | 470 ft | 141 kts | 15° |
| 2026-05-05 20:07 | 50.88458 | 4.49052 | 293 ft | 138 kts | 14° |
| 2026-05-05 20:07 | 50.89395 | 4.49428 | 163 ft | 135 kts | 13° |
| 2026-05-05 20:07 | 50.90209 | 4.49761 | 142 ft | 96 kts | 14° |
| 2026-05-05 20:08 | 50.90659 | 4.49936 | 135 ft | 37 kts | 3° |
| 2026-05-05 20:08 | 50.90847 | 4.49891 | 137 ft | 17 kts | 334° |
| 2026-05-05 20:08 | 50.90879 | 4.49805 | 140 ft | 0 kts | 294° |
| 2026-05-05 20:14 | 50.90881 | 4.49798 | 140 ft | 4 kts | 294° |
| 2026-05-05 20:15 | 50.90899 | 4.49710 | 141 ft | 2 kts | 271° |
| 2026-05-05 20:15 | 50.90899 | 4.49708 | 141 ft | 1 kts | 271° |
| 2026-05-05 20:15 | 50.90888 | 4.49660 | 141 ft | 7 kts | 230° |
| 2026-05-05 20:15 | 50.90835 | 4.49655 | 142 ft | 9 kts | 148° |
| 2026-05-05 20:16 | 50.90782 | 4.49718 | 142 ft | 10 kts | 178° |
| 2026-05-05 20:16 | 50.90709 | 4.49694 | 142 ft | 12 kts | 195° |
| 2026-05-05 20:16 | 50.90620 | 4.49658 | 142 ft | 14 kts | 194° |
| 2026-05-05 20:16 | 50.90523 | 4.49619 | 143 ft | 7 kts | 195° |
| 2026-05-05 20:17 | 50.90457 | 4.49592 | 143 ft | 15 kts | 194° |
| 2026-05-05 20:17 | 50.90339 | 4.49544 | 143 ft | 20 kts | 194° |
| 2026-05-05 20:17 | 50.90200 | 4.49488 | 143 ft | 21 kts | 194° |
| 2026-05-05 20:17 | 50.90093 | 4.49445 | 143 ft | 10 kts | 196° |
| 2026-05-05 20:18 | 50.90049 | 4.49424 | 144 ft | 1 kts | 198° |
| 2026-05-05 20:18 | 50.90013 | 4.49407 | 144 ft | 9 kts | 193° |
| 2026-05-05 20:18 | 50.89993 | 4.49394 | 144 ft | 3 kts | 226° |
| 2026-05-05 20:18 | 50.89995 | 4.49313 | 144 ft | 10 kts | 262° |
| 2026-05-05 20:19 | 50.89967 | 4.49186 | 143 ft | 14 kts | 253° |
| 2026-05-05 20:19 | 50.89931 | 4.49051 | 143 ft | 14 kts | 245° |
| 2026-05-05 20:19 | 50.89895 | 4.48924 | 143 ft | 14 kts | 245° |
| 2026-05-05 20:19 | 50.89860 | 4.48803 | 143 ft | 9 kts | 246° |
| 2026-05-05 20:20 | 50.89848 | 4.48761 | 143 ft | 2 kts | 246° |
| 2026-05-05 20:20 | 50.89846 | 4.48750 | 143 ft | 0 kts | 246° |
| 2026-05-05 20:20 | 50.89838 | 4.48722 | 143 ft | 4 kts | 246° |
| 2026-05-05 20:21 | 50.89835 | 4.48711 | 143 ft | 2 kts | 248° |
| 2026-05-05 20:21 | 50.89839 | 4.48687 | 143 ft | 2 kts | 306° |
| 2026-05-05 20:21 | 50.89861 | 4.48668 | 143 ft | 5 kts | 326° |
| 2026-05-05 20:21 | 50.89872 | 4.48651 | 143 ft | 3 kts | 308° |
| 2026-05-05 20:22 | 50.89891 | 4.48627 | 143 ft | 2 kts | 337° |
| 2026-05-05 20:22 | 50.89909 | 4.48613 | 143 ft | 0 kts | 335° |
| 2026-05-05 20:23 | 50.89907 | 4.48615 | 143 ft | 0 kts | 336° |